Time;durP1;ratioP1;P1;durP2;ratioP2;P2;SDS_P1;SDS_P2;PMS_P1;PMS_P2;Temp;Humidity;BMP_temperature;BMP_pressure;BME280_temperature;BME280_humidity;BME280_pressure;Samples;Min_cycle;Max_cycle;Signal;HPM_P1;HPM_P2
2022/10/18 00:00:44;;;;;;;17.12;8.78;;;;;;;7.28;78.63;101868.59;1723391;83;21275;-81
2022/10/18 00:03:51;;;;;;;15.28;9.60;;;;;;;6.91;79.59;101872.73;1724265;81;21205;-81
2022/10/18 00:06:57;;;;;;;14.53;9.03;;;;;;;6.91;80.08;101879.53;1733606;83;21192;-81
2022/10/18 00:10:03;;;;;;;21.05;9.23;;;;;;;7.25;79.11;101871.58;1725156;83;21823;-80
2022/10/18 00:13:10;;;;;;;11.73;8.33;;;;;;;7.35;78.19;101878.05;1732448;83;21228;-81
2022/10/18 00:16:19;;;;;;;16.35;9.73;;;;;;;7.35;77.91;101878.05;1724661;83;21184;-80
2022/10/18 00:19:18;;;;;;;21.02;9.65;;;;;;;7.22;78.14;101875.02;1733744;83;21188;-80
2022/10/18 00:22:26;;;;;;;14.43;8.25;;;;;;;7.20;77.87;101865.61;1724739;83;21244;-81
2022/10/18 00:25:32;;;;;;;17.73;9.23;;;;;;;7.15;77.72;101860.98;1733391;83;21205;-77
2022/10/18 00:28:39;;;;;;;18.20;8.60;;;;;;;7.14;77.45;101866.92;1724740;83;21240;-78
2022/10/18 00:31:45;;;;;;;14.23;9.00;;;;;;;7.24;77.03;101864.86;1732424;83;21271;-78
2022/10/18 00:34:51;;;;;;;14.83;8.30;;;;;;;7.14;77.02;101860.62;1726214;83;21173;-79
2022/10/18 00:37:57;;;;;;;20.02;8.95;;;;;;;7.00;77.26;101858.07;1733332;83;21240;-79
2022/10/18 00:41:03;;;;;;;22.62;9.08;;;;;;;6.93;77.72;101856.31;1724512;83;21244;-78
2022/10/18 00:44:15;;;;;;;14.47;8.13;;;;;;;6.89;78.01;101856.17;1732204;83;21227;-78
2022/10/18 00:47:22;;;;;;;18.52;8.48;;;;;;;6.84;78.29;101854.28;1724629;83;21185;-78
2022/10/18 00:50:28;;;;;;;20.17;8.70;;;;;;;6.83;78.34;101847.98;1733530;83;21287;-79
2022/10/18 00:53:33;;;;;;;13.55;8.65;;;;;;;6.98;77.47;101846.45;1726084;83;21177;-78
2022/10/18 00:56:39;;;;;;;16.17;8.18;;;;;;;6.64;78.19;101848.48;1733510;83;21754;-79
2022/10/18 00:59:45;;;;;;;14.83;7.62;;;;;;;6.42;79.48;101847.45;1713492;83;21161;-79
2022/10/18 01:02:52;;;;;;;15.58;9.20;;;;;;;6.56;79.53;101845.95;1732201;83;21244;-78
2022/10/18 01:05:57;;;;;;;17.45;8.65;;;;;;;6.60;79.52;101844.74;1718386;83;21181;-78
2022/10/18 01:09:14;;;;;;;15.60;9.05;;;;;;;6.67;79.26;101846.01;1718365;83;21275;-79
2022/10/18 01:12:47;;;;;;;11.35;7.92;;;;;;;6.73;78.98;101836.52;1717309;83;21240;-79
2022/10/18 01:16:06;;;;;;;13.95;8.45;;;;;;;6.73;79.23;101836.52;1718395;83;21577;-79
2022/10/18 01:19:25;;;;;;;17.90;8.38;;;;;;;6.80;79.12;101836.45;1718390;83;21748;-79
2022/10/18 01:22:44;;;;;;;14.18;8.78;;;;;;;6.86;78.98;101836.85;1717082;83;21279;-79
2022/10/18 01:26:29;;;;;;;18.45;9.98;;;;;;;6.84;79.26;101836.11;1718434;83;21756;-80
2022/10/18 01:29:57;;;;;;;24.45;10.35;;;;;;;6.74;79.34;101834.20;1717242;83;21233;-77
2022/10/18 01:33:15;;;;;;;16.60;9.80;;;;;;;6.82;78.53;101834.48;1717443;83;21264;-80
2022/10/18 01:36:33;;;;;;;14.03;9.00;;;;;;;6.75;77.85;101832.72;1714912;83;21216;-78
2022/10/18 01:39:41;;;;;;;20.30;10.68;;;;;;;6.74;77.57;101834.20;1718594;83;21173;-79
2022/10/18 01:42:47;;;;;;;17.12;9.73;;;;;;;6.76;77.23;101828.14;1717449;83;21193;-78
2022/10/18 01:45:53;;;;;;;19.00;10.43;;;;;;;6.70;77.21;101825.40;1718368;83;21756;-78
2022/10/18 01:48:52;;;;;;;20.52;11.15;;;;;;;6.58;77.17;101829.02;1717172;83;21257;-79
2022/10/18 01:51:57;;;;;;;20.90;11.45;;;;;;;6.76;76.62;101820.84;1717981;83;21284;-79
2022/10/18 01:55:05;;;;;;;26.12;11.18;;;;;;;6.62;77.20;101821.88;1702647;84;21760;-79
2022/10/18 01:58:30;;;;;;;19.05;11.78;;;;;;;6.50;78.08;101811.07;1718640;83;21586;-78
2022/10/18 02:01:58;;;;;;;34.30;16.12;;;;;;;6.65;78.03;101815.36;1718543;83;21196;-80
2022/10/18 02:05:17;;;;;;;21.25;11.38;;;;;;;6.68;78.12;101816.50;1717852;83;21812;-78
2022/10/18 02:08:43;;;;;;;22.07;12.93;;;;;;;6.51;78.83;101816.38;1714247;83;21205;-78
2022/10/18 02:11:50;;;;;;;27.00;12.03;;;;;;;6.50;78.57;101816.51;1694035;84;21236;-78
2022/10/18 02:14:57;;;;;;;20.82;12.58;;;;;;;6.59;78.06;101813.97;1722047;83;21272;-79
2022/10/18 02:18:02;;;;;;;19.67;10.45;;;;;;;6.14;78.87;101813.63;1694563;84;21207;-79
2022/10/18 02:21:09;;;;;;;19.40;10.10;;;;;;;6.62;77.69;101815.08;1723248;83;21193;-79
2022/10/18 02:24:16;;;;;;;18.85;10.43;;;;;;;6.69;76.39;101814.16;1694420;84;21208;-79
2022/10/18 02:27:22;;;;;;;20.17;11.30;;;;;;;6.78;75.24;101818.04;1709006;83;21188;-79
2022/10/18 02:30:30;;;;;;;15.83;9.83;;;;;;;6.72;74.37;101818.47;1693316;84;21236;-79
2022/10/18 02:33:40;;;;;;;20.12;10.65;;;;;;;6.59;73.71;101818.55;1721980;83;21221;-78
2022/10/18 02:37:06;;;;;;;15.48;9.95;;;;;;;6.39;73.80;101818.14;1694425;84;21212;-79
2022/10/18 02:40:14;;;;;;;26.77;10.13;;;;;;;6.46;73.05;101821.30;1721915;83;21197;-78
2022/10/18 02:43:19;;;;;;;15.98;10.08;;;;;;;6.24;73.39;101811.11;1693642;84;21216;-78
2022/10/18 02:46:26;;;;;;;19.05;11.18;;;;;;;6.26;72.84;101803.73;1673821;83;21184;-79
2022/10/18 02:49:32;;;;;;;22.58;11.53;;;;;;;6.22;72.59;101810.38;1694440;84;21735;-78
2022/10/18 02:52:38;;;;;;;27.25;11.10;;;;;;;6.10;72.84;101812.61;1721780;83;21803;-79
2022/10/18 02:55:44;;;;;;;23.57;11.35;;;;;;;5.90;73.21;101802.66;1693072;84;21331;-78
2022/10/18 02:58:49;;;;;;;29.35;12.68;;;;;;;5.79;73.71;101798.50;1721726;83;21184;-78
2022/10/18 03:01:54;;;;;;;24.45;13.80;;;;;;;6.12;73.94;101791.65;1692949;84;21208;-78
2022/10/18 03:05:00;;;;;;;23.12;14.03;;;;;;;5.73;75.94;101796.20;1721545;83;21764;-78
2022/10/18 03:08:07;;;;;;;22.30;11.80;;;;;;;5.98;76.59;101798.58;1687173;84;21247;-79
2022/10/18 03:11:13;;;;;;;29.20;13.28;;;;;;;5.91;76.51;101799.45;1702729;84;21232;-78
2022/10/18 03:14:18;;;;;;;23.38;12.70;;;;;;;5.88;76.10;101809.16;1717243;83;21272;-78
2022/10/18 03:17:23;;;;;;;19.48;11.40;;;;;;;5.84;75.74;101809.03;1718408;83;21192;-79
2022/10/18 03:20:29;;;;;;;18.67;11.35;;;;;;;5.79;75.30;101812.08;1718473;83;21201;-78
2022/10/18 03:23:35;;;;;;;18.35;11.05;;;;;;;5.72;75.43;101810.75;1716793;82;21201;-79
2022/10/18 03:26:42;;;;;;;18.20;10.63;;;;;;;5.67;75.06;101799.35;1717121;82;21251;-78
2022/10/18 03:29:49;;;;;;;21.05;11.85;;;;;;;5.67;75.08;101795.77;1718549;83;21536;-78
2022/10/18 03:32:55;;;;;;;20.95;11.55;;;;;;;5.79;74.20;101798.50;1718280;83;21233;-80
2022/10/18 03:36:01;;;;;;;24.90;12.23;;;;;;;5.55;74.18;101789.34;1718493;83;21224;-80
2022/10/18 03:39:06;;;;;;;18.70;11.40;;;;;;;5.57;74.36;101791.48;1718550;83;21189;-80
2022/10/18 03:42:12;;;;;;;19.62;11.12;;;;;;;5.54;74.01;101791.69;1718574;83;21197;-80
2022/10/18 03:45:18;;;;;;;22.67;11.85;;;;;;;5.56;73.67;101790.63;1718377;83;21283;-80
2022/10/18 03:48:27;;;;;;;26.82;12.60;;;;;;;5.59;73.35;101786.80;1718411;83;21197;-78
2022/10/18 03:51:34;;;;;;;22.10;12.20;;;;;;;5.30;74.09;101783.42;1718585;83;21189;-78
2022/10/18 03:54:40;;;;;;;20.35;11.28;;;;;;;5.58;73.23;101781.86;1717500;83;21225;-79
2022/10/18 03:57:45;;;;;;;23.25;12.00;;;;;;;5.07;74.72;101776.37;1718439;83;21201;-78
2022/10/18 04:00:52;;;;;;;19.25;11.33;;;;;;;5.36;74.40;101786.59;1717210;83;21197;-78
2022/10/18 04:03:57;;;;;;;24.75;11.60;;;;;;;5.03;74.81;101776.20;1717936;83;21807;-78
2022/10/18 04:07:04;;;;;;;21.40;12.60;;;;;;;5.34;74.69;101776.31;1718673;83;21205;-78
2022/10/18 04:10:11;;;;;;;34.78;11.95;;;;;;;4.89;76.62;101773.56;1693170;84;21296;-78
2022/10/18 04:13:16;;;;;;;23.15;11.97;;;;;;;5.24;75.51;101766.22;1723151;83;21252;-78
2022/10/18 04:16:23;;;;;;;32.42;13.08;;;;;;;5.61;74.55;101775.37;1694097;84;21629;-79
2022/10/18 04:19:29;;;;;;;26.65;13.00;;;;;;;5.69;73.82;101772.09;1723298;83;21240;-78
2022/10/18 04:22:34;;;;;;;43.28;12.13;;;;;;;5.42;74.85;101769.50;1694541;84;21239;-78
2022/10/18 04:25:40;;;;;;;27.15;11.48;;;;;;;5.43;74.60;101772.59;1723141;83;21200;-78
2022/10/18 04:28:45;;;;;;;34.65;10.90;;;;;;;5.48;74.10;101768.57;1694321;84;21212;-79
2022/10/18 04:31:51;;;;;;;27.82;11.70;;;;;;;5.53;73.77;101769.60;1722417;83;21224;-79
2022/10/18 04:34:57;;;;;;;35.17;12.03;;;;;;;5.53;73.51;101765.53;1693088;84;21267;-78
2022/10/18 04:38:04;;;;;;;30.37;11.55;;;;;;;5.48;73.70;101760.92;1722850;83;21744;-78
2022/10/18 04:41:09;;;;;;;26.12;11.05;;;;;;;5.17;74.80;101758.98;1694412;84;21212;-79
2022/10/18 04:44:16;;;;;;;41.80;11.63;;;;;;;5.24;75.13;101760.80;1722731;83;21236;-78
2022/10/18 04:47:21;;;;;;;48.08;12.68;;;;;;;5.21;75.25;101762.35;1693849;84;21256;-80
2022/10/18 04:50:28;;;;;;;29.30;14.33;;;;;;;5.31;75.23;101761.59;1723000;83;21739;-80
2022/10/18 04:53:36;;;;;;;37.88;15.25;;;;;;;5.75;75.43;101760.81;1693117;84;21219;-78
2022/10/18 04:56:43;;;;;;;58.50;15.75;;;;;;;5.87;75.82;101762.13;1723094;83;21232;-78
2022/10/18 04:59:48;;;;;;;75.40;17.80;;;;;;;6.01;76.64;101764.38;1694447;84;21212;-81
2022/10/18 05:02:54;;;;;;;49.80;15.48;;;;;;;6.27;75.97;101763.84;1722150;83;22512;-80
2022/10/18 05:05:59;;;;;;;40.65;15.05;;;;;;;5.95;76.73;101767.05;1693141;84;21835;-81
2022/10/18 05:09:06;;;;;;;47.38;14.98;;;;;;;6.57;75.79;101761.55;1723673;82;21232;-80
2022/10/18 05:12:12;;;;;;;97.08;40.43;;;;;;;6.65;75.72;101763.70;1694707;84;21148;-79
2022/10/18 05:15:18;;;;;;;109.03;45.28;;;;;;;6.75;75.53;101772.89;1722435;83;21268;-79
2022/10/18 05:18:25;;;;;;;65.55;30.55;;;;;;;6.78;75.77;101779.47;1694356;84;21219;-79
2022/10/18 05:21:31;;;;;;;51.73;25.35;;;;;;;7.00;75.38;101775.95;1722948;83;21180;-79
2022/10/18 05:24:36;;;;;;;47.73;22.25;;;;;;;7.26;75.28;101780.77;1694179;84;21256;-79
2022/10/18 05:27:42;;;;;;;45.15;22.10;;;;;;;7.36;75.84;101779.55;1723126;83;21200;-79
2022/10/18 05:30:48;;;;;;;43.73;20.55;;;;;;;7.40;76.68;101776.47;1695629;83;21217;-79
2022/10/18 05:33:54;;;;;;;28.20;17.20;;;;;;;7.55;76.76;101774.39;1686473;84;21255;-79
2022/10/18 05:37:00;;;;;;;37.00;16.65;;;;;;;7.59;77.41;101780.47;1695767;84;21196;-79
2022/10/18 05:40:07;;;;;;;31.02;15.53;;;;;;;7.73;77.87;101786.19;1718202;83;21180;-79
2022/10/18 05:43:13;;;;;;;30.23;16.27;;;;;;;7.80;78.30;101788.28;1685176;84;21180;-79
2022/10/18 05:46:20;;;;;;;28.98;15.58;;;;;;;8.00;78.45;101787.17;1702577;81;21469;-79
2022/10/18 05:49:25;;;;;;;22.13;13.80;;;;;;;8.14;78.55;101792.41;1722819;81;21195;-79
2022/10/18 05:52:30;;;;;;;17.90;11.45;;;;;;;7.83;80.13;101796.72;1725216;81;21256;-80
2022/10/18 05:55:36;;;;;;;26.05;12.50;;;;;;;8.17;80.74;101801.67;1719984;83;21271;-80
2022/10/18 05:58:42;;;;;;;22.60;11.43;;;;;;;8.25;81.72;101801.92;1704735;81;21204;-80
2022/10/18 06:01:49;;;;;;;22.77;11.35;;;;;;;8.45;82.05;101795.73;1723270;82;22154;-80
2022/10/18 06:04:54;;;;;;;23.42;12.65;;;;;;;8.53;82.65;101796.97;1694570;83;21197;-80
2022/10/18 06:08:03;;;;;;;24.47;11.38;;;;;;;8.79;82.74;101800.23;1722184;83;21220;-80
2022/10/18 06:11:14;;;;;;;23.15;11.93;;;;;;;8.98;82.59;101792.73;1713859;83;21786;-79
2022/10/18 06:14:19;;;;;;;22.27;11.85;;;;;;;9.41;81.38;101790.80;1727931;82;21211;-79
2022/10/18 06:17:19;;;;;;;;;;;;;;;9.55;80.96;101794.17;1713449;83;21251;-79
2022/10/18 06:20:27;;;;;;;24.00;12.13;;;;;;;9.77;80.61;101798.14;1725182;81;20205;-79
2022/10/18 06:23:36;;;;;;;18.57;12.53;;;;;;;9.96;79.92;101794.14;1728143;82;21406;-79
2022/10/18 06:26:43;;;;;;;33.53;14.25;;;;;;;10.07;79.37;101795.94;1720304;83;21184;-80
2022/10/18 06:29:50;;;;;;;40.20;13.78;;;;;;;10.20;79.16;101799.78;1721212;83;21223;-78
2022/10/18 06:32:57;;;;;;;27.13;12.93;;;;;;;10.37;78.93;101801.05;1732379;81;21187;-79
2022/10/18 06:36:09;;;;;;;32.48;14.38;;;;;;;10.70;77.98;101797.95;1709306;82;21218;-79
2022/10/18 06:39:18;;;;;;;25.17;13.25;;;;;;;10.85;77.73;101801.15;1703141;84;21248;-78
2022/10/18 06:42:39;;;;;;;37.83;13.32;;;;;;;10.91;77.91;101806.05;1720459;81;21187;-80
2022/10/18 06:45:49;;;;;;;24.18;11.63;;;;;;;11.15;76.84;101797.45;1722868;82;21176;-80
2022/10/18 06:48:55;;;;;;;30.90;12.00;;;;;;;11.33;76.00;101796.19;1723986;81;21270;-80
2022/10/18 06:52:01;;;;;;;27.07;11.88;;;;;;;11.58;74.68;101791.14;1734835;82;21203;-80
2022/10/18 06:55:09;;;;;;;32.05;10.60;;;;;;;11.81;74.22;101788.41;1715271;81;21183;-80
2022/10/18 06:58:15;;;;;;;20.12;9.53;;;;;;;11.88;73.96;101786.83;1723166;81;21770;-79
2022/10/18 07:01:22;;;;;;;32.33;9.88;;;;;;;12.12;72.68;101783.56;1696677;82;21821;-79
2022/10/18 07:04:28;;;;;;;29.72;8.50;;;;;;;12.14;72.56;101790.25;1715445;83;21239;-79
2022/10/18 07:07:40;;;;;;;26.65;8.38;;;;;;;12.50;71.54;101782.50;1716117;81;21248;-79
2022/10/18 07:10:48;;;;;;;20.40;7.87;;;;;;;12.53;70.93;101773.97;1724800;82;21230;-79
2022/10/18 07:13:54;;;;;;;16.17;7.12;;;;;;;12.69;70.36;101769.67;1752022;80;21800;-79
2022/10/18 07:17:00;;;;;;;22.55;7.55;;;;;;;12.74;69.50;101765.95;1762050;80;21158;-78
2022/10/18 07:20:10;;;;;;;25.62;7.37;;;;;;;12.97;69.33;101757.61;1759575;80;21260;-79
2022/10/18 07:23:15;;;;;;;33.78;8.40;;;;;;;13.10;68.78;101756.38;1758486;80;21761;-78
2022/10/18 07:26:36;;;;;;;25.95;8.18;;;;;;;13.44;67.42;101754.63;1749874;80;21182;-81
2022/10/18 07:29:41;;;;;;;38.40;13.27;;;;;;;13.62;66.99;101754.59;1701953;82;21217;-81
2022/10/18 07:32:47;;;;;;;37.70;14.10;;;;;;;13.86;66.23;101751.13;1699514;83;21200;-81
2022/10/18 07:35:56;;;;;;;22.50;10.10;;;;;;;14.06;65.11;101745.73;1757901;81;21194;-81
2022/10/18 07:39:05;;;;;;;20.17;7.40;;;;;;;14.18;64.67;101749.06;1765152;80;21806;-80
2022/10/18 07:42:10;;;;;;;20.75;6.92;;;;;;;14.26;64.30;101745.50;1702839;82;21820;-80
2022/10/18 07:45:17;;;;;;;19.07;6.78;;;;;;;14.24;63.70;101745.64;1720074;82;21234;-80
2022/10/18 07:48:23;;;;;;;10.90;6.55;;;;;;;14.41;62.82;101746.59;1759027;80;21837;-79
2022/10/18 07:51:31;;;;;;;14.75;7.25;;;;;;;14.64;61.29;101742.73;1752795;80;21187;-79
2022/10/18 07:54:38;;;;;;;14.30;5.87;;;;;;;14.84;60.21;101730.89;1726595;82;21258;-79
2022/10/18 07:57:43;;;;;;;14.55;5.70;;;;;;;15.07;58.49;101736.08;1714641;81;21199;-79
2022/10/18 08:00:50;;;;;;;19.92;6.45;;;;;;;15.45;57.40;101732.80;1742417;81;21177;-79
2022/10/18 08:03:59;;;;;;;13.90;6.03;;;;;;;15.39;57.21;101723.34;1735123;81;21199;-79
2022/10/18 08:07:09;;;;;;;20.65;7.00;;;;;;;15.17;57.86;101724.03;1750459;81;21189;-80
2022/10/18 08:10:16;;;;;;;20.65;7.33;;;;;;;14.84;59.17;101719.88;1745563;81;21227;-81
2022/10/18 08:13:21;;;;;;;14.87;7.17;;;;;;;15.07;58.64;101718.69;1759362;80;21850;-81
2022/10/18 08:16:31;;;;;;;17.25;7.05;;;;;;;15.51;57.34;101712.28;1721550;81;21228;-80
2022/10/18 08:19:36;;;;;;;18.48;6.97;;;;;;;15.74;56.92;101711.58;1719582;81;21200;-80
2022/10/18 08:22:43;;;;;;;12.00;6.62;;;;;;;15.88;56.27;101706.72;1701127;82;21197;-80
2022/10/18 08:25:49;;;;;;;17.35;6.42;;;;;;;16.09;54.89;101699.20;1726737;81;21251;-79
2022/10/18 08:28:55;;;;;;;10.90;5.90;;;;;;;15.83;56.05;101689.83;1715749;82;21616;-79
2022/10/18 08:32:02;;;;;;;13.68;5.67;;;;;;;15.76;55.64;101689.69;1712837;81;21211;-80
2022/10/18 08:35:09;;;;;;;21.50;5.47;;;;;;;16.00;54.48;101694.27;1719763;81;22482;-79
2022/10/18 08:38:17;;;;;;;18.35;5.12;;;;;;;16.09;54.39;101684.02;1695410;84;21831;-79
2022/10/18 08:41:27;;;;;;;11.85;4.92;;;;;;;16.19;52.14;101687.98;1694253;83;21193;-78
2022/10/18 08:44:38;;;;;;;15.63;4.83;;;;;;;16.18;52.44;101685.71;1689759;83;21199;-79
2022/10/18 08:47:52;;;;;;;11.60;4.60;;;;;;;16.43;52.09;101682.33;1704355;83;21208;-79
2022/10/18 08:50:58;;;;;;;10.60;4.42;;;;;;;17.00;50.37;101671.42;1719010;81;21227;-78
2022/10/18 08:54:20;;;;;;;7.28;4.10;;;;;;;16.94;49.99;101667.99;1721202;81;21714;-79
2022/10/18 08:57:26;;;;;;;9.68;3.83;;;;;;;16.69;50.97;101671.44;1721254;81;21804;-79
2022/10/18 09:00:36;;;;;;;9.58;3.75;;;;;;;16.71;49.90;101672.14;1715456;81;21170;-79
2022/10/18 09:04:14;;;;;;;9.80;3.80;;;;;;;16.71;49.35;101670.23;1690869;83;21184;-80
2022/10/18 09:07:57;;;;;;;12.33;3.70;;;;;;;16.75;48.23;101657.80;1726151;81;21172;-79
2022/10/18 09:11:30;;;;;;;12.50;4.12;;;;;;;16.68;48.54;101662.83;1657692;85;21838;-79
2022/10/18 09:15:02;;;;;;;9.53;3.20;;;;;;;16.60;48.55;101657.68;1725056;81;21211;-80
2022/10/18 09:18:49;;;;;;;12.45;4.10;;;;;;;16.54;48.46;101652.04;1722712;82;21794;-79
2022/10/18 09:22:02;;;;;;;10.03;3.75;;;;;;;16.71;47.51;101637.60;1724335;81;21240;-79
2022/10/18 09:25:45;;;;;;;7.78;3.45;;;;;;;16.69;46.98;101630.00;1719317;82;21231;-78
2022/10/18 09:29:04;;;;;;;7.53;3.62;;;;;;;16.77;47.18;101632.74;1706109;82;21178;-79
2022/10/18 09:32:34;;;;;;;7.70;3.70;;;;;;;16.83;46.85;101628.70;1721562;82;21192;-79
2022/10/18 09:35:50;;;;;;;14.20;4.42;;;;;;;17.01;46.38;101616.47;1726392;81;21175;-78
2022/10/18 09:38:59;;;;;;;11.70;3.80;;;;;;;17.14;45.99;101611.69;1722716;81;21196;-79
2022/10/18 09:42:15;;;;;;;15.83;3.92;;;;;;;17.19;45.56;101605.93;1726277;82;21204;-78
2022/10/18 09:45:41;;;;;;;7.45;4.12;;;;;;;17.28;45.00;101601.17;1721761;81;21175;-78
2022/10/18 09:48:56;;;;;;;15.35;3.70;;;;;;;17.61;44.18;101601.66;1720392;81;21260;-79
2022/10/18 09:52:03;;;;;;;11.35;4.08;;;;;;;17.54;44.76;101596.02;1718976;82;21397;-79
2022/10/18 09:55:24;;;;;;;7.75;3.62;;;;;;;17.41;44.54;101590.81;1726456;82;21283;-78
2022/10/18 09:58:23;;;;;;;10.82;3.77;;;;;;;17.81;43.99;101583.45;1730076;82;21223;-79
2022/10/18 10:01:32;;;;;;;10.00;3.70;;;;;;;17.81;43.99;101583.45;1724554;82;21916;-79
2022/10/18 10:04:38;;;;;;;4.90;3.22;;;;;;;17.85;43.98;101586.69;1694943;83;21204;-78
2022/10/18 10:07:50;;;;;;;7.05;3.25;;;;;;;17.80;43.42;101576.73;1758772;81;21198;-78
2022/10/18 10:10:56;;;;;;;6.85;3.80;;;;;;;17.92;43.11;101559.08;1752629;80;21144;-79
2022/10/18 10:14:24;;;;;;;5.72;3.55;;;;;;;17.90;42.82;101562.59;1723341;82;21207;-79
2022/10/18 10:17:32;;;;;;;12.00;3.35;;;;;;;18.00;42.98;101562.59;1697012;83;21230;-79
2022/10/18 10:20:45;;;;;;;11.03;3.70;;;;;;;17.98;42.35;101552.79;1695860;82;21214;-81
2022/10/18 10:23:59;;;;;;;9.75;3.50;;;;;;;17.99;41.14;101560.03;1693786;82;21231;-79
2022/10/18 10:27:08;;;;;;;7.47;3.35;;;;;;;18.05;40.89;101555.09;1686565;84;21243;-80
2022/10/18 10:30:29;;;;;;;14.10;3.47;;;;;;;17.84;41.44;101550.39;1719045;82;22167;-79
2022/10/18 10:33:43;;;;;;;6.00;2.98;;;;;;;17.75;41.66;101543.25;1720321;81;22299;-79
2022/10/18 10:36:57;;;;;;;10.95;3.27;;;;;;;17.78;41.01;101540.07;1722114;81;21257;-78
2022/10/18 10:40:29;;;;;;;8.35;3.30;;;;;;;17.78;41.70;101540.07;1727502;82;21204;-79
2022/10/18 10:43:44;;;;;;;5.58;3.05;;;;;;;17.77;41.57;101537.83;1715286;81;21804;-79
2022/10/18 10:46:52;;;;;;;9.75;3.55;;;;;;;17.82;41.39;101538.11;1719627;81;21267;-79
2022/10/18 10:49:57;;;;;;;8.93;3.60;;;;;;;17.87;41.11;101531.46;1730568;82;21216;-79
2022/10/18 10:53:03;;;;;;;7.45;3.33;;;;;;;18.01;39.95;101524.70;1721581;83;21280;-79
2022/10/18 10:56:30;;;;;;;7.72;3.50;;;;;;;17.94;39.65;101518.25;1714741;81;21255;-79
2022/10/18 10:59:38;;;;;;;15.98;3.95;;;;;;;17.80;40.81;101516.70;1716946;82;21243;-79
2022/10/18 11:02:45;;;;;;;19.48;4.42;;;;;;;17.89;39.76;101517.45;1728607;82;21264;-79
2022/10/18 11:05:56;;;;;;;10.43;4.65;;;;;;;17.83;40.16;101501.59;1682109;83;21308;-79
2022/10/18 11:09:02;;;;;;;9.48;4.65;;;;;;;17.95;40.13;101501.96;1713567;81;21319;-78
2022/10/18 11:12:32;;;;;;;8.85;4.83;;;;;;;17.97;39.95;101492.92;1698581;81;21221;-78
2022/10/18 11:15:48;;;;;;;7.40;4.42;;;;;;;18.00;39.80;101485.09;1727504;83;21237;-79
2022/10/18 11:18:55;;;;;;;9.15;3.85;;;;;;;18.05;39.25;101473.42;1725870;81;21255;-80
2022/10/18 11:22:01;;;;;;;9.58;4.05;;;;;;;17.91;39.37;101469.66;1691904;84;21200;-80
2022/10/18 11:25:07;;;;;;;10.15;4.00;;;;;;;17.93;38.80;101467.57;1696998;83;21239;-79
2022/10/18 11:28:48;;;;;;;11.05;4.17;;;;;;;18.08;37.69;101458.67;1678149;84;21195;-80
2022/10/18 11:32:27;;;;;;;8.90;4.37;;;;;;;18.09;37.96;101458.98;1667282;86;21211;-80
2022/10/18 11:35:48;;;;;;;10.72;4.75;;;;;;;18.19;38.00;101457.27;1665750;84;21216;-78
2022/10/18 11:39:16;;;;;;;15.43;4.47;;;;;;;17.80;38.22;101455.82;1669333;84;21264;-80
2022/10/18 11:42:32;;;;;;;12.93;5.25;;;;;;;17.76;38.38;101452.26;1698439;83;21207;-80
2022/10/18 11:45:48;;;;;;;9.73;4.28;;;;;;;17.80;38.25;101446.66;1693432;84;21798;-80
2022/10/18 11:49:25;;;;;;;13.68;4.20;;;;;;;17.87;38.25;101446.19;1669530;84;21213;-78
2022/10/18 11:52:41;;;;;;;10.90;4.25;;;;;;;17.93;38.30;101431.59;1693248;83;21260;-79
2022/10/18 11:56:14;;;;;;;9.80;3.75;;;;;;;17.81;37.59;101435.39;1727967;81;21878;-78
2022/10/18 11:59:44;;;;;;;8.00;3.90;;;;;;;18.11;36.96;101432.48;1725445;81;21853;-78
2022/10/18 12:03:28;;;;;;;7.33;3.25;;;;;;;18.16;36.98;101426.34;1728936;81;21806;-81
2022/10/18 12:06:39;;;;;;;9.08;3.72;;;;;;;17.72;37.33;101422.70;1619341;84;21966;-81
2022/10/18 12:09:48;;;;;;;;;;;;;;;17.70;37.43;101412.90;1728059;81;21208;-79
2022/10/18 12:13:00;;;;;;;6.00;2.70;;;;;;;18.08;36.78;101407.98;1725687;82;20258;-79
2022/10/18 12:16:09;;;;;;;5.78;2.58;;;;;;;18.03;37.15;101406.34;1724537;83;21740;-79
2022/10/18 12:19:26;;;;;;;7.42;2.70;;;;;;;17.93;37.35;101399.76;1728909;82;21136;-79
2022/10/18 12:22:49;;;;;;;10.32;2.37;;;;;;;17.96;37.76;101389.66;1726180;82;21723;-80
2022/10/18 12:26:02;;;;;;;6.00;2.72;;;;;;;18.02;37.37;101381.96;1694958;84;21209;-79
2022/10/18 12:29:37;;;;;;;4.10;2.52;;;;;;;17.79;37.87;101381.31;1687703;82;21224;-79
2022/10/18 12:32:45;;;;;;;15.23;3.33;;;;;;;17.65;38.02;101375.28;1729429;82;21345;-80
2022/10/18 12:36:13;;;;;;;10.03;3.67;;;;;;;17.65;37.86;101377.52;1683609;84;21228;-78
2022/10/18 12:39:28;;;;;;;11.05;3.10;;;;;;;17.61;37.46;101372.90;1727187;82;21809;-79
2022/10/18 12:42:37;;;;;;;6.70;3.17;;;;;;;18.01;37.08;101371.06;1698066;84;21211;-79
2022/10/18 12:45:40;;;;;;;7.70;3.00;;;;;;;18.04;37.09;101367.91;1726205;82;22122;-79
2022/10/18 12:48:50;;;;;;;8.03;3.23;;;;;;;17.88;37.22;101365.76;1688404;84;21219;-78
2022/10/18 12:52:10;;;;;;;4.17;2.72;;;;;;;18.05;36.40;101355.23;1729428;82;21248;-78
2022/10/18 12:55:24;;;;;;;13.72;3.50;;;;;;;17.69;36.57;101353.05;1694804;84;21315;-78
2022/10/18 12:58:33;;;;;;;7.50;3.17;;;;;;;17.64;36.92;101356.41;1730738;82;21248;-78
2022/10/18 13:01:56;;;;;;;12.23;3.65;;;;;;;17.52;37.25;101349.18;1697707;84;21299;-78
2022/10/18 13:04:49;;;;;;;11.55;3.92;;;;;;;17.95;36.39;101345.05;1731375;82;21208;-79
2022/10/18 13:07:57;;;;;;;7.28;3.10;;;;;;;17.77;36.99;101339.13;1700474;84;21196;-78
2022/10/18 13:11:21;;;;;;;10.75;3.67;;;;;;;17.66;38.32;101342.41;1731090;82;21236;-78
2022/10/18 13:14:43;;;;;;;11.78;3.67;;;;;;;17.62;39.27;101334.48;1698188;84;21227;-78
2022/10/18 13:18:05;;;;;;;13.45;4.42;;;;;;;17.69;38.57;101329.04;1714342;82;21255;-79
2022/10/18 13:21:57;;;;;;;9.90;3.50;;;;;;;17.66;39.14;101328.58;1740193;82;21228;-79
2022/10/18 13:25:33;;;;;;;7.17;3.80;;;;;;;17.31;40.92;101323.77;1743240;82;21770;-78
2022/10/18 13:28:54;;;;;;;8.05;4.15;;;;;;;17.40;41.65;101320.31;1744595;82;21188;-78
2022/10/18 13:32:32;;;;;;;16.82;5.00;;;;;;;17.43;41.87;101322.70;1724013;82;21200;-78
2022/10/18 13:36:04;;;;;;;15.72;4.22;;;;;;;17.45;42.33;101316.97;1744523;82;21192;-78
2022/10/18 13:39:12;;;;;;;9.65;3.92;;;;;;;17.43;42.53;101315.78;1743236;82;21787;-78
2022/10/18 13:42:36;;;;;;;14.78;4.00;;;;;;;17.50;42.49;101309.81;1743715;82;21220;-78
2022/10/18 13:45:51;;;;;;;14.25;4.20;;;;;;;17.35;42.80;101305.70;1699319;84;21188;-78
2022/10/18 13:49:02;;;;;;;10.70;3.80;;;;;;;17.46;42.78;101300.19;1697844;84;21219;-78
2022/10/18 13:52:27;;;;;;;8.70;3.65;;;;;;;17.27;43.19;101292.55;1698697;84;21212;-78
2022/10/18 13:56:14;;;;;;;10.70;3.72;;;;;;;17.29;43.27;101290.44;1698687;84;21941;-78
2022/10/18 13:59:41;;;;;;;10.03;3.67;;;;;;;16.90;44.01;101283.41;1699228;84;21193;-78
2022/10/18 14:03:22;;;;;;;7.95;3.58;;;;;;;16.70;44.45;101285.02;1698228;84;21239;-78
2022/10/18 14:06:42;;;;;;;11.48;4.03;;;;;;;16.55;44.71;101283.66;1699355;84;21857;-78
2022/10/18 14:09:58;;;;;;;20.55;4.78;;;;;;;16.45;44.68;101271.53;1697976;84;21275;-78
2022/10/18 14:13:05;;;;;;;10.13;4.67;;;;;;;16.28;44.87;101269.51;1698163;84;21240;-78
2022/10/18 14:16:36;;;;;;;15.65;4.45;;;;;;;16.29;44.99;101263.46;1698053;84;21211;-78
2022/10/18 14:19:45;;;;;;;11.35;3.90;;;;;;;16.36;45.20;101263.02;1700357;83;21239;-79
2022/10/18 14:23:17;;;;;;;11.10;3.62;;;;;;;16.09;45.58;101252.11;1745043;82;21272;-79
2022/10/18 14:26:27;;;;;;;8.88;3.42;;;;;;;15.96;45.81;101246.42;1744475;82;21228;-79
2022/10/18 14:29:33;;;;;;;6.20;3.35;;;;;;;15.84;46.32;101240.48;1702296;84;21852;-78
2022/10/18 14:32:39;;;;;;;6.92;3.52;;;;;;;16.01;46.01;101236.52;1744344;82;21204;-78
2022/10/18 14:35:44;;;;;;;12.98;4.45;;;;;;;15.82;46.37;101239.83;1745166;82;21177;-78
2022/10/18 14:39:02;;;;;;;12.98;4.17;;;;;;;15.73;46.34;101236.82;1745174;82;21240;-78
2022/10/18 14:42:07;;;;;;;11.63;4.42;;;;;;;15.26;47.17;101232.38;1746020;82;21177;-78
2022/10/18 14:45:22;;;;;;;13.93;4.35;;;;;;;15.18;47.50;101225.55;1746127;82;21157;-78